createdAt,value
2019-03-29T00:01:22.707Z,99.90
2019-03-29T00:03:52.715Z,99.90
2019-03-29T00:06:22.470Z,99.90
2019-03-29T00:08:52.253Z,99.90
2019-03-29T00:11:22.022Z,99.90
2019-03-29T00:13:51.852Z,99.90
2019-03-29T00:16:21.611Z,99.90
2019-03-29T00:18:51.785Z,99.90
2019-03-29T00:21:21.557Z,99.90
2019-03-29T00:23:51.333Z,99.90
2019-03-29T00:26:21.176Z,99.90
2019-03-29T00:28:51.051Z,99.90
2019-03-29T00:31:20.834Z,99.90
2019-03-29T00:33:50.597Z,99.90
2019-03-29T00:36:20.518Z,99.90
2019-03-29T00:38:50.350Z,99.90
2019-03-29T00:41:20.193Z,99.90
2019-03-29T00:43:50.083Z,99.90
2019-03-29T00:46:19.926Z,99.90
2019-03-29T00:48:49.817Z,99.90
2019-03-29T00:51:20.048Z,99.90
2019-03-29T00:53:49.915Z,99.90
2019-03-29T00:56:20.485Z,99.90
2019-03-29T00:58:50.280Z,99.90
2019-03-29T01:01:20.141Z,99.90
2019-03-29T01:03:50.647Z,99.90
2019-03-29T01:06:20.494Z,99.90
2019-03-29T01:08:50.352Z,99.90
2019-03-29T01:11:20.206Z,99.90
2019-03-29T01:13:50.245Z,99.90
2019-03-29T01:16:20.710Z,99.90
2019-03-29T01:18:50.477Z,99.90
2019-03-29T01:21:20.245Z,99.90
2019-03-29T01:23:50.248Z,99.90
2019-03-29T01:26:38.903Z,99.90
2019-03-29T01:29:08.741Z,99.90
2019-03-29T01:31:38.517Z,99.90
2019-03-29T01:34:08.347Z,99.90
2019-03-29T01:36:38.236Z,99.90
2019-03-29T01:39:08.006Z,99.90
2019-03-29T01:41:37.895Z,99.90
2019-03-29T01:44:07.661Z,99.90
2019-03-29T01:46:38.115Z,99.90
2019-03-29T01:49:08.233Z,99.90
2019-03-29T01:51:38.082Z,99.90
2019-03-29T01:54:07.876Z,99.90
2019-03-29T01:56:37.750Z,99.90
2019-03-29T01:59:08.090Z,99.90
2019-03-29T02:01:37.807Z,99.90
2019-03-29T02:04:08.184Z,99.90
2019-03-29T02:06:38.401Z,99.90
2019-03-29T02:09:08.463Z,99.90
2019-03-29T02:11:38.326Z,99.90
2019-03-29T02:14:08.188Z,99.90
2019-03-29T02:16:38.016Z,99.90
2019-03-29T02:19:07.803Z,99.90
2019-03-29T02:21:37.589Z,99.90
2019-03-29T02:24:07.367Z,99.90
2019-03-29T02:26:37.266Z,99.90
2019-03-29T02:29:07.063Z,99.90
2019-03-29T02:31:36.898Z,99.90
2019-03-29T02:34:06.701Z,99.90
2019-03-29T02:36:36.476Z,99.90
2019-03-29T02:39:07.026Z,99.90
2019-03-29T02:41:36.781Z,99.90
2019-03-29T02:44:07.604Z,99.90
2019-03-29T02:46:37.883Z,99.90
2019-03-29T02:49:07.672Z,99.90
2019-03-29T02:51:37.886Z,99.90
2019-03-29T02:54:07.770Z,99.90
2019-03-29T02:56:37.627Z,99.90
2019-03-29T02:59:07.618Z,99.90
2019-03-29T03:01:37.571Z,99.90
2019-03-29T03:04:07.347Z,99.90
2019-03-29T03:06:37.712Z,99.90
2019-03-29T03:09:13.991Z,99.90
2019-03-29T03:11:39.723Z,99.90
2019-03-29T03:14:09.510Z,99.90
2019-03-29T03:16:39.366Z,99.90
2019-03-29T03:19:09.174Z,99.90
2019-03-29T03:21:38.964Z,99.90
2019-03-29T03:24:09.046Z,99.90
2019-03-29T03:26:39.087Z,99.90
2019-03-29T03:29:08.979Z,99.90
2019-03-29T03:31:38.838Z,99.90
2019-03-29T03:34:08.670Z,99.90
2019-03-29T03:36:38.503Z,99.90
2019-03-29T03:39:09.544Z,99.90
2019-03-29T03:41:39.475Z,99.90
2019-03-29T03:44:09.255Z,99.90
2019-03-29T03:46:39.128Z,99.90
2019-03-29T03:49:08.944Z,99.90
2019-03-29T03:51:38.778Z,99.90
2019-03-29T03:54:08.643Z,99.90
2019-03-29T03:56:38.439Z,99.90
2019-03-29T03:59:08.963Z,99.90
2019-03-29T04:01:38.850Z,99.90
2019-03-29T04:04:08.710Z,99.90
2019-03-29T04:06:38.549Z,99.90
2019-03-29T04:09:08.457Z,99.90
2019-03-29T04:11:38.331Z,99.90
2019-03-29T04:14:08.131Z,99.90
2019-03-29T04:16:38.027Z,99.90
2019-03-29T04:19:07.808Z,99.90
2019-03-29T04:21:37.659Z,99.90
2019-03-29T04:24:07.526Z,99.90
2019-03-29T04:26:37.814Z,99.90
2019-03-29T04:29:07.596Z,99.90
2019-03-29T04:31:37.468Z,99.90
2019-03-29T04:34:07.285Z,99.90
2019-03-29T04:36:37.068Z,99.90
2019-03-29T04:39:07.428Z,99.90
2019-03-29T04:41:37.293Z,99.90
2019-03-29T04:44:07.456Z,99.90
2019-03-29T04:46:37.345Z,99.90
2019-03-29T04:49:07.193Z,99.90
2019-03-29T04:51:36.902Z,99.90
2019-03-29T04:54:06.685Z,99.90
2019-03-29T04:56:36.695Z,99.90
2019-03-29T04:59:06.566Z,99.90
2019-03-29T05:01:36.512Z,99.90
2019-03-29T05:04:06.360Z,99.90
2019-03-29T05:06:36.207Z,99.90
2019-03-29T05:09:07.639Z,99.90
2019-03-29T05:11:37.418Z,99.90
2019-03-29T05:14:07.185Z,99.90
2019-03-29T05:16:36.909Z,99.90
2019-03-29T05:19:06.682Z,99.90
2019-03-29T05:21:36.486Z,99.90
2019-03-29T05:24:06.271Z,99.90
2019-03-29T05:26:36.140Z,99.90
2019-03-29T05:29:06.668Z,99.90
2019-03-29T05:31:36.776Z,99.90
2019-03-29T05:34:06.632Z,99.90
2019-03-29T05:36:36.391Z,99.90
2019-03-29T05:39:07.440Z,99.90
2019-03-29T05:41:37.207Z,99.90
2019-03-29T05:44:10.822Z,99.90
2019-03-29T05:46:40.667Z,99.90
2019-03-29T05:49:10.448Z,99.90
2019-03-29T05:51:40.280Z,99.90
2019-03-29T05:54:10.141Z,99.90
2019-03-29T05:56:39.913Z,99.90
2019-03-29T05:59:09.679Z,99.90
2019-03-29T06:01:39.501Z,99.90
2019-03-29T06:04:09.201Z,99.90
2019-03-29T06:06:39.442Z,99.90
2019-03-29T06:09:09.228Z,99.90
2019-03-29T06:11:39.074Z,99.90
2019-03-29T06:14:08.858Z,99.90
2019-03-29T06:16:39.547Z,99.90
2019-03-29T06:19:09.402Z,99.90
2019-03-29T06:21:39.173Z,99.90
2019-03-29T06:24:09.044Z,99.90
2019-03-29T06:26:38.853Z,99.90
2019-03-29T06:29:08.651Z,99.90
2019-03-29T06:31:38.512Z,99.90
2019-03-29T06:34:08.365Z,99.90
2019-03-29T06:36:38.967Z,99.90
2019-03-29T06:39:09.969Z,99.90
2019-03-29T06:41:39.755Z,99.90
2019-03-29T06:44:09.554Z,99.90
2019-03-29T06:46:39.779Z,99.90
2019-03-29T06:49:09.647Z,99.90
2019-03-29T06:51:39.503Z,99.90
2019-03-29T06:54:09.425Z,99.50
2019-03-29T06:56:39.292Z,98.90
2019-03-29T06:59:10.923Z,98.70
2019-03-29T07:01:40.719Z,97.60
2019-03-29T07:04:10.504Z,97.40
2019-03-29T07:06:40.317Z,97.70
2019-03-29T07:09:10.205Z,97.60
2019-03-29T07:11:39.975Z,97.40
2019-03-29T07:14:09.869Z,96.70
2019-03-29T07:16:39.734Z,96.50
2019-03-29T07:19:09.561Z,96.30
2019-03-29T07:21:39.423Z,96.50
2019-03-29T07:24:09.215Z,96.60
2019-03-29T07:26:39.012Z,96.20
2019-03-29T07:29:09.404Z,96.30
2019-03-29T07:31:39.224Z,95.90
2019-03-29T07:34:09.079Z,95.60
2019-03-29T07:36:38.864Z,96.10
2019-03-29T07:39:08.659Z,96.30
2019-03-29T07:41:39.294Z,96.20
2019-03-29T07:44:09.002Z,96.40
2019-03-29T07:46:38.855Z,96.50
2019-03-29T07:49:08.700Z,96.70
2019-03-29T07:51:38.694Z,96.80
2019-03-29T07:54:08.537Z,97.00
2019-03-29T07:56:38.428Z,97.20
2019-03-29T07:59:08.306Z,97.20
2019-03-29T08:01:38.115Z,97.20
2019-03-29T08:04:08.000Z,97.30
2019-03-29T08:06:39.122Z,97.70
2019-03-29T08:09:21.766Z,97.20
2019-03-29T08:11:46.469Z,97.20
2019-03-29T08:14:14.934Z,97.00
2019-03-29T08:16:44.769Z,97.20
2019-03-29T08:19:14.555Z,96.70
2019-03-29T08:21:44.401Z,96.60
2019-03-29T08:24:14.098Z,96.40
2019-03-29T08:26:43.963Z,96.40
2019-03-29T08:29:13.843Z,96.40
2019-03-29T08:31:43.707Z,96.40
2019-03-29T08:34:13.578Z,96.20
2019-03-29T08:36:43.362Z,96.20
2019-03-29T08:39:27.028Z,96.30
2019-03-29T08:41:44.658Z,96.40
2019-03-29T08:44:15.373Z,95.90
2019-03-29T08:46:45.222Z,95.30
2019-03-29T08:49:16.874Z,94.90
2019-03-29T08:51:47.246Z,94.20
2019-03-29T08:54:17.014Z,93.90
2019-03-29T08:56:46.907Z,93.70
2019-03-29T08:59:17.668Z,92.60
2019-03-29T09:01:47.967Z,93.00
2019-03-29T09:04:21.589Z,93.20
2019-03-29T09:06:53.675Z,93.00
2019-03-29T09:09:21.591Z,92.60
2019-03-29T09:11:51.480Z,92.80
2019-03-29T09:14:21.300Z,92.70
2019-03-29T09:16:51.089Z,92.90
2019-03-29T09:19:21.443Z,92.90
2019-03-29T09:21:51.347Z,92.30
2019-03-29T09:24:22.566Z,91.30
2019-03-29T09:26:52.635Z,91.40
2019-03-29T09:29:23.284Z,91.30
2019-03-29T09:31:56.050Z,91.30
2019-03-29T09:34:28.732Z,91.30
2019-03-29T09:36:59.887Z,90.90
2019-03-29T09:39:28.994Z,90.70
2019-03-29T09:41:58.871Z,90.80
2019-03-29T09:44:28.766Z,91.30
2019-03-29T09:46:58.666Z,90.50
2019-03-29T09:49:28.605Z,90.60
2019-03-29T09:51:58.422Z,90.50
2019-03-29T09:54:28.228Z,90.70
2019-03-29T09:56:58.046Z,90.40
2019-03-29T09:59:28.538Z,90.50
2019-03-29T10:01:58.359Z,90.40
2019-03-29T10:04:28.439Z,90.60
2019-03-29T10:06:58.305Z,90.20
2019-03-29T10:09:28.166Z,90.50
2019-03-29T10:11:58.084Z,90.70
2019-03-29T10:14:27.983Z,90.30
2019-03-29T10:16:57.860Z,90.60
2019-03-29T10:19:27.721Z,90.20
2019-03-29T10:21:57.461Z,90.40
2019-03-29T10:24:28.024Z,90.20
2019-03-29T10:26:57.885Z,90.60
2019-03-29T10:29:27.726Z,90.50
2019-03-29T10:31:58.159Z,90.80
2019-03-29T10:34:28.011Z,90.70
2019-03-29T10:36:57.915Z,90.60
2019-03-29T10:39:27.743Z,90.80
2019-03-29T10:41:57.619Z,90.20
2019-03-29T10:44:27.483Z,89.80
2019-03-29T10:46:57.339Z,90.30
2019-03-29T10:49:27.152Z,90.60
2019-03-29T10:51:57.027Z,90.80
2019-03-29T10:54:26.917Z,90.80
2019-03-29T10:56:56.772Z,91.30
2019-03-29T10:59:28.015Z,91.50
2019-03-29T11:01:58.479Z,91.10
2019-03-29T11:04:31.687Z,91.00
2019-03-29T11:06:59.890Z,91.30
2019-03-29T11:09:29.671Z,91.30
2019-03-29T11:11:59.871Z,91.30
2019-03-29T11:14:29.817Z,91.00
2019-03-29T11:16:59.686Z,91.40
2019-03-29T11:19:29.568Z,91.50
2019-03-29T11:21:59.491Z,91.30
2019-03-29T11:24:29.613Z,91.60
2019-03-29T11:26:59.855Z,91.40
2019-03-29T11:29:29.958Z,91.70
2019-03-29T11:31:59.893Z,91.90
2019-03-29T11:34:29.905Z,91.70
2019-03-29T11:36:59.918Z,92.00
2019-03-29T11:39:29.833Z,92.00
2019-03-29T11:42:03.192Z,92.20
2019-03-29T11:44:31.662Z,92.00
2019-03-29T11:47:02.010Z,92.00
2019-03-29T11:49:32.027Z,92.20
2019-03-29T11:52:02.796Z,92.30
2019-03-29T11:54:32.619Z,92.30
2019-03-29T11:57:02.603Z,92.30
2019-03-29T11:59:32.533Z,92.20
2019-03-29T12:02:02.411Z,92.40
2019-03-29T12:04:32.207Z,92.40
2019-03-29T12:07:03.708Z,92.70
2019-03-29T12:09:33.747Z,92.70
2019-03-29T12:12:03.554Z,92.80
2019-03-29T12:14:33.643Z,92.90
2019-03-29T12:17:03.494Z,92.80
2019-03-29T12:19:33.393Z,92.60
2019-03-29T12:22:03.209Z,92.40
2019-03-29T12:24:32.997Z,92.20
2019-03-29T12:27:02.858Z,92.40
2019-03-29T12:29:32.738Z,92.30
2019-03-29T12:32:02.550Z,92.60
2019-03-29T12:34:32.499Z,92.60
2019-03-29T12:37:02.648Z,92.30
2019-03-29T12:39:32.623Z,92.20
2019-03-29T12:42:02.617Z,92.30
2019-03-29T12:44:32.403Z,92.60
2019-03-29T12:47:02.248Z,92.70
2019-03-29T12:49:32.524Z,92.90
2019-03-29T12:52:02.442Z,93.00
2019-03-29T12:54:32.249Z,93.20
2019-03-29T12:57:02.160Z,93.10
2019-03-29T12:59:33.064Z,93.20
2019-03-29T13:02:03.117Z,93.10
2019-03-29T13:04:32.982Z,93.40
2019-03-29T13:07:02.837Z,92.90
2019-03-29T13:09:32.693Z,92.80
2019-03-29T13:12:02.890Z,92.70
2019-03-29T13:14:32.926Z,92.60
2019-03-29T13:17:03.083Z,92.40
2019-03-29T13:19:33.001Z,92.50
2019-03-29T13:22:02.900Z,92.10
2019-03-29T13:24:32.753Z,92.50
2019-03-29T13:27:02.552Z,92.20
2019-03-29T13:29:32.345Z,91.90
2019-03-29T13:32:02.220Z,92.00
2019-03-29T13:34:32.124Z,91.60
2019-03-29T13:37:02.172Z,91.30
2019-03-29T13:39:32.183Z,91.40
2019-03-29T13:42:02.072Z,91.60
2019-03-29T13:44:31.954Z,91.50
2019-03-29T13:47:01.903Z,91.70
2019-03-29T13:49:31.699Z,90.70
2019-03-29T13:52:01.561Z,90.50
2019-03-29T13:54:31.447Z,94.70
2019-03-29T13:57:01.383Z,90.20
2019-03-29T13:59:32.125Z,89.90
2019-03-29T14:02:02.046Z,89.00
2019-03-29T14:04:31.914Z,89.20
2019-03-29T14:07:01.731Z,90.70
2019-03-29T14:09:31.638Z,91.20
2019-03-29T14:12:01.525Z,93.20
2019-03-29T14:14:38.030Z,90.20
2019-03-29T14:17:03.152Z,90.70
2019-03-29T14:19:33.063Z,90.40
2019-03-29T14:22:02.999Z,90.20
2019-03-29T14:24:32.913Z,89.80
2019-03-29T14:27:02.774Z,89.80
2019-03-29T14:29:32.649Z,89.80
2019-03-29T14:32:02.564Z,90.10
2019-03-29T14:34:32.447Z,90.30
2019-03-29T14:37:02.699Z,90.50
2019-03-29T14:39:32.505Z,90.60
2019-03-29T14:42:02.416Z,90.70
2019-03-29T14:44:32.322Z,91.00
2019-03-29T14:47:02.212Z,91.40
2019-03-29T14:49:32.082Z,91.40
2019-03-29T14:52:02.377Z,91.50
2019-03-29T14:54:32.208Z,91.50
2019-03-29T14:57:05.306Z,91.70
2019-03-29T14:59:34.027Z,91.70
2019-03-29T15:02:04.010Z,91.70
2019-03-29T15:04:33.878Z,92.00
2019-03-29T15:07:03.778Z,91.70
2019-03-29T15:09:33.651Z,91.90
2019-03-29T15:12:06.673Z,92.00
2019-03-29T15:14:35.071Z,92.10
2019-03-29T15:17:04.995Z,92.20
2019-03-29T15:19:34.883Z,92.30
2019-03-29T15:22:05.087Z,92.50
2019-03-29T15:24:35.012Z,92.60
2019-03-29T15:27:04.872Z,92.60
2019-03-29T15:29:34.781Z,92.50
2019-03-29T15:32:04.658Z,92.40
2019-03-29T15:34:35.610Z,92.30
2019-03-29T15:37:05.546Z,92.10
2019-03-29T15:39:35.440Z,91.90
2019-03-29T15:42:05.359Z,92.00
2019-03-29T15:44:35.238Z,92.20
2019-03-29T15:47:05.212Z,92.50
2019-03-29T15:49:35.188Z,92.70
2019-03-29T15:52:05.124Z,92.90
2019-03-29T15:54:36.036Z,93.10
2019-03-29T15:57:05.880Z,93.20
2019-03-29T15:59:35.765Z,93.10
2019-03-29T16:02:05.575Z,93.30
2019-03-29T16:04:35.529Z,93.40
2019-03-29T16:07:05.579Z,93.40
2019-03-29T16:09:35.466Z,93.60
2019-03-29T16:12:05.337Z,93.80
2019-03-29T16:14:35.217Z,93.80
2019-03-29T16:17:05.122Z,93.90
2019-03-29T16:19:35.007Z,94.00
2019-03-29T16:22:06.220Z,94.00
2019-03-29T16:24:36.598Z,93.80
2019-03-29T16:27:06.445Z,94.00
2019-03-29T16:29:36.380Z,94.20
2019-03-29T16:32:06.179Z,94.20
2019-03-29T16:34:36.046Z,94.30
2019-03-29T16:37:06.303Z,94.40
2019-03-29T16:39:36.316Z,94.50
2019-03-29T16:42:06.203Z,94.60
2019-03-29T16:44:36.511Z,94.60
2019-03-29T16:47:06.395Z,94.80
2019-03-29T16:49:37.460Z,94.70
2019-03-29T16:52:07.359Z,94.80
2019-03-29T16:54:38.032Z,94.90
2019-03-29T16:57:08.489Z,94.90
2019-03-29T16:59:38.303Z,95.00
2019-03-29T17:02:08.366Z,95.00
2019-03-29T17:04:38.263Z,95.00
2019-03-29T17:07:08.075Z,94.90
2019-03-29T17:09:37.928Z,95.10
2019-03-29T17:12:07.772Z,95.10
2019-03-29T17:14:37.627Z,95.10
2019-03-29T17:17:07.480Z,95.20
2019-03-29T17:19:37.360Z,95.20
2019-03-29T17:22:07.142Z,95.30
2019-03-29T17:24:37.403Z,95.30
2019-03-29T17:27:07.228Z,95.40
2019-03-29T17:29:37.095Z,95.40
2019-03-29T17:32:07.020Z,95.50
2019-03-29T17:34:36.806Z,95.40
2019-03-29T17:37:07.219Z,95.50
2019-03-29T17:39:37.095Z,95.50
2019-03-29T17:42:06.965Z,95.60
2019-03-29T17:44:37.688Z,95.60
2019-03-29T17:47:07.599Z,95.70
2019-03-29T17:49:37.532Z,95.80
2019-03-29T17:52:07.455Z,95.80
2019-03-29T17:54:37.332Z,95.80
2019-03-29T17:57:07.135Z,95.80
2019-03-29T17:59:37.937Z,95.90
2019-03-29T18:02:09.666Z,96.00
2019-03-29T18:04:39.370Z,96.00
2019-03-29T18:07:09.169Z,96.00
2019-03-29T18:09:39.051Z,96.10
2019-03-29T18:12:11.320Z,96.00
2019-03-29T18:14:40.463Z,96.10
2019-03-29T18:17:10.384Z,96.20
2019-03-29T18:19:40.173Z,96.10
2019-03-29T18:22:10.121Z,96.20
2019-03-29T18:24:39.998Z,96.30
2019-03-29T18:27:09.902Z,96.20
2019-03-29T18:29:39.778Z,96.30
2019-03-29T18:32:10.082Z,96.40
2019-03-29T18:34:41.573Z,96.50
2019-03-29T18:37:13.860Z,96.60
2019-03-29T18:39:44.922Z,97.00
2019-03-29T18:42:14.817Z,96.70
2019-03-29T18:44:44.737Z,96.70
2019-03-29T18:47:14.731Z,96.80
2019-03-29T18:49:44.585Z,96.80
2019-03-29T18:52:14.483Z,96.80
2019-03-29T18:54:44.401Z,96.90
2019-03-29T18:57:14.247Z,96.90
2019-03-29T18:59:44.104Z,97.10
2019-03-29T19:02:13.998Z,97.10
2019-03-29T19:04:43.798Z,97.20
2019-03-29T19:07:13.614Z,97.30
2019-03-29T19:09:43.417Z,97.30
2019-03-29T19:12:13.209Z,97.40
2019-03-29T19:14:43.021Z,97.50
2019-03-29T19:17:12.909Z,97.50
2019-03-29T19:19:43.160Z,97.50
2019-03-29T19:22:16.732Z,97.70
2019-03-29T19:24:46.543Z,97.80
2019-03-29T19:27:16.421Z,97.80
2019-03-29T19:29:46.322Z,97.90
2019-03-29T19:32:16.175Z,97.90
2019-03-29T19:34:46.078Z,98.00
2019-03-29T19:37:15.874Z,97.90
2019-03-29T19:39:45.757Z,98.00
2019-03-29T19:42:16.869Z,98.10
2019-03-29T19:44:47.195Z,98.10
2019-03-29T19:47:17.260Z,98.20
2019-03-29T19:49:47.049Z,98.10
2019-03-29T19:52:17.443Z,98.20
2019-03-29T19:54:47.378Z,98.20
2019-03-29T19:57:17.314Z,98.10
2019-03-29T19:59:48.312Z,98.10
2019-03-29T20:02:18.934Z,98.10
2019-03-29T20:04:48.723Z,98.10
2019-03-29T20:07:20.404Z,98.10
2019-03-29T20:09:50.574Z,98.10
2019-03-29T20:12:21.347Z,98.20
2019-03-29T20:14:51.321Z,98.30
2019-03-29T20:17:27.447Z,98.20
2019-03-29T20:19:52.677Z,98.30
2019-03-29T20:22:22.566Z,98.30
2019-03-29T20:24:52.415Z,98.40
2019-03-29T20:27:22.284Z,98.40
2019-03-29T20:29:52.155Z,98.40
2019-03-29T20:32:21.977Z,98.60
2019-03-29T20:34:51.869Z,98.50
2019-03-29T20:37:21.786Z,98.60
2019-03-29T20:39:51.663Z,98.60
2019-03-29T20:42:24.721Z,98.80
2019-03-29T20:44:53.071Z,98.80
2019-03-29T20:47:22.877Z,98.90
2019-03-29T20:49:52.678Z,99.00
2019-03-29T20:52:22.633Z,98.90
2019-03-29T20:54:52.516Z,98.90
2019-03-29T20:57:22.324Z,98.90
2019-03-29T20:59:52.235Z,98.90
2019-03-29T21:02:22.138Z,98.80
2019-03-29T21:04:52.681Z,98.90
2019-03-29T21:07:22.545Z,98.80
2019-03-29T21:09:52.419Z,98.80
2019-03-29T21:12:22.285Z,98.70
2019-03-29T21:14:52.157Z,98.70
2019-03-29T21:17:21.991Z,98.60
2019-03-29T21:19:51.856Z,98.60
2019-03-29T21:22:21.727Z,98.50
2019-03-29T21:24:51.618Z,98.60
2019-03-29T21:27:21.782Z,98.60
2019-03-29T21:29:51.656Z,98.60
2019-03-29T21:32:21.532Z,98.60
2019-03-29T21:34:51.407Z,98.60
2019-03-29T21:37:21.275Z,98.60
2019-03-29T21:39:51.179Z,98.70
2019-03-29T21:42:21.064Z,98.60
2019-03-29T21:44:50.955Z,98.60
2019-03-29T21:47:21.023Z,98.70
2019-03-29T21:49:51.103Z,98.70
2019-03-29T21:52:21.179Z,98.60
2019-03-29T21:54:50.999Z,98.60
2019-03-29T21:57:20.930Z,98.60
2019-03-29T21:59:50.810Z,98.70
2019-03-29T22:02:21.564Z,98.70
2019-03-29T22:04:51.761Z,98.80
2019-03-29T22:07:21.575Z,98.70
2019-03-29T22:09:53.392Z,98.70
2019-03-29T22:12:24.130Z,98.60
2019-03-29T22:14:54.004Z,98.60
2019-03-29T22:17:23.911Z,98.70
2019-03-29T22:19:53.784Z,98.70
2019-03-29T22:22:23.651Z,98.60
2019-03-29T22:24:53.530Z,98.70
2019-03-29T22:27:23.394Z,98.60
2019-03-29T22:29:53.260Z,98.60
2019-03-29T22:32:23.078Z,98.70
2019-03-29T22:34:52.935Z,98.70
2019-03-29T22:37:22.778Z,98.70
2019-03-29T22:39:52.689Z,98.70
2019-03-29T22:42:22.483Z,98.60
2019-03-29T22:44:52.365Z,98.70
2019-03-29T22:47:23.008Z,99.10
2019-03-29T22:49:52.786Z,98.70
2019-03-29T22:52:22.557Z,98.80
2019-03-29T22:54:52.421Z,98.80
2019-03-29T22:57:23.142Z,98.80
2019-03-29T22:59:53.015Z,98.80
2019-03-29T23:02:23.228Z,98.80
2019-03-29T23:04:53.024Z,99.00
2019-03-29T23:07:22.858Z,99.00
2019-03-29T23:09:52.758Z,99.00
2019-03-29T23:12:22.640Z,99.30
2019-03-29T23:14:52.670Z,98.90
2019-03-29T23:17:22.476Z,98.90
2019-03-29T23:19:52.335Z,98.90
2019-03-29T23:22:22.155Z,98.90
2019-03-29T23:24:51.999Z,98.90
2019-03-29T23:27:22.219Z,98.90
2019-03-29T23:29:52.066Z,98.80
2019-03-29T23:32:21.932Z,98.90
2019-03-29T23:34:51.788Z,98.80
2019-03-29T23:37:21.525Z,98.80
2019-03-29T23:39:51.381Z,98.80
2019-03-29T23:42:21.259Z,98.80
2019-03-29T23:44:51.104Z,98.80
2019-03-29T23:47:20.878Z,98.90
2019-03-29T23:49:50.673Z,98.90
2019-03-29T23:52:22.302Z,98.90
2019-03-29T23:54:52.177Z,99.00
2019-03-29T23:57:22.061Z,98.90
2019-03-29T23:59:51.846Z,98.90
